Time;durP1;ratioP1;P1;durP2;ratioP2;P2;SDS_P1;SDS_P2;PMS_P1;PMS_P2;Temp;Humidity;BMP_temperature;BMP_pressure;BME280_temperature;BME280_humidity;BME280_pressure;Samples;Min_cycle;Max_cycle;Signal;HPM_P1;HPM_P2
2021/12/07 00:01:14;;;;;;;15.90;11.95;;;2.70;94.30;;;;;;5057254;28;20535;-67
2021/12/07 00:03:40;;;;;;;19.08;11.43;;;2.60;94.00;;;;;;5062080;28;20185;-65
2021/12/07 00:06:06;;;;;;;16.27;11.30;;;2.50;92.90;;;;;;5060824;28;20495;-65
2021/12/07 00:08:32;;;;;;;12.38;8.70;;;2.40;92.70;;;;;;5063311;28;20024;-65
2021/12/07 00:10:58;;;;;;;13.23;8.85;;;2.30;91.90;;;;;;5056480;28;20040;-64
2021/12/07 00:13:28;;;;;;;13.70;8.55;;;2.10;91.80;;;;;;5061227;28;20466;-67
2021/12/07 00:15:54;;;;;;;14.52;9.07;;;2.00;92.20;;;;;;5056743;28;20029;-66
2021/12/07 00:18:20;;;;;;;13.02;9.32;;;1.80;92.30;;;;;;5060798;28;20028;-63
2021/12/07 00:20:45;;;;;;;14.05;8.65;;;1.80;93.00;;;;;;5056120;28;20085;-65
2021/12/07 00:23:11;;;;;;;14.48;8.05;;;1.80;92.30;;;;;;5058815;28;20855;-64
2021/12/07 00:25:37;;;;;;;15.68;9.05;;;1.70;92.10;;;;;;5062676;28;20093;-65
2021/12/07 00:28:04;;;;;;;15.07;9.75;;;1.60;92.40;;;;;;5060928;28;20452;-64
2021/12/07 00:30:32;;;;;;;13.82;9.82;;;1.50;92.70;;;;;;5039936;28;20590;-63
2021/12/07 00:33:41;;;;;;;15.77;9.93;;;1.50;93.20;;;;;;5060983;28;20025;-64
2021/12/07 00:35:51;;;;;;;17.13;11.93;;;1.50;93.60;;;;;;5051801;28;20057;-64
2021/12/07 00:38:23;;;;;;;18.00;11.82;;;1.50;93.90;;;;;;5054889;28;20040;-64
2021/12/07 00:40:50;;;;;;;;;;;1.60;94.40;;;;;;5058215;28;20097;-64
2021/12/07 00:43:16;;;;;;;15.85;9.85;;;1.60;93.80;;;;;;5058373;28;19917;-64
2021/12/07 00:45:45;;;;;;;12.57;9.15;;;1.60;93.20;;;;;;5059065;28;20693;-64
2021/12/07 00:48:13;;;;;;;14.23;9.80;;;1.50;92.50;;;;;;5060143;28;20028;-64
2021/12/07 00:50:44;;;;;;;15.02;10.27;;;1.50;92.60;;;;;;5054991;28;20060;-65
2021/12/07 00:53:10;;;;;;;15.87;10.30;;;1.40;92.70;;;;;;5057013;28;20033;-64
2021/12/07 00:55:40;;;;;;;15.90;10.10;;;1.30;92.50;;;;;;5060746;28;20307;-65
2021/12/07 00:58:16;;;;;;;17.02;10.18;;;1.20;93.40;;;;;;5061466;28;20032;-65
2021/12/07 01:00:43;;;;;;;13.43;9.18;;;1.00;93.20;;;;;;5057433;28;20036;-64
2021/12/07 01:03:08;;;;;;;18.52;11.18;;;0.90;93.40;;;;;;5057385;28;20119;-65
2021/12/07 01:05:35;;;;;;;17.95;10.63;;;0.90;93.50;;;;;;5059609;28;20167;-65
2021/12/07 01:26:54;;;;;;;20.10;12.55;;;0.60;95.10;;;;;;5063774;28;20081;-65
2021/12/07 01:29:23;;;;;;;19.70;11.68;;;0.70;95.30;;;;;;5059112;28;20445;-65
2021/12/07 01:31:53;;;;;;;17.65;11.38;;;0.80;95.30;;;;;;5061812;28;20039;-65
2021/12/07 01:37:11;;;;;;;19.85;13.35;;;1.00;95.20;;;;;;5060316;28;20029;-65
2021/12/07 01:53:03;;;;;;;20.30;13.13;;;1.50;95.60;;;;;;5060490;28;20098;-65
2021/12/07 02:00:50;;;;;;;15.90;10.32;;;1.50;93.70;;;;;;5060155;28;20081;-65
2021/12/07 02:03:17;;;;;;;15.25;8.85;;;1.50;93.50;;;;;;5060976;28;20029;-65
2021/12/07 02:05:43;;;;;;;13.38;9.55;;;1.40;93.40;;;;;;5063208;28;20039;-65
2021/12/07 02:08:09;;;;;;;14.70;10.48;;;1.30;93.70;;;;;;5059462;28;20036;-65
2021/12/07 02:10:35;;;;;;;17.08;11.35;;;1.30;93.90;;;;;;5060797;28;20044;-65
2021/12/07 02:13:05;;;;;;;19.08;12.68;;;1.30;94.60;;;;;;5065827;28;20505;-65
2021/12/07 02:15:32;;;;;;;18.75;13.20;;;1.40;95.10;;;;;;5065362;28;20401;-68
2021/12/07 02:17:58;;;;;;;21.45;12.95;;;1.40;95.50;;;;;;5063432;28;20413;-65
2021/12/07 02:20:27;;;;;;;18.70;12.43;;;1.40;95.80;;;;;;5059200;28;20056;-65
2021/12/07 02:22:53;;;;;;;18.55;13.02;;;1.50;95.90;;;;;;5063246;28;20030;-65
2021/12/07 02:25:19;;;;;;;17.70;12.90;;;1.60;95.80;;;;;;5058865;28;20643;-65
2021/12/07 02:27:46;;;;;;;19.58;12.85;;;1.70;95.60;;;;;;5061894;28;20036;-65
2021/12/07 02:30:17;;;;;;;19.27;12.65;;;1.80;95.50;;;;;;5056318;28;20379;-65
2021/12/07 02:32:43;;;;;;;19.52;12.82;;;1.90;95.50;;;;;;5059265;28;20114;-65
2021/12/07 02:35:12;;;;;;;17.90;12.32;;;1.90;95.40;;;;;;5060057;28;20070;-65
2021/12/07 02:37:37;;;;;;;17.38;11.82;;;2.10;95.30;;;;;;5063210;28;20032;-65
2021/12/07 02:40:07;;;;;;;17.48;12.27;;;2.10;95.20;;;;;;5062610;28;20049;-65
2021/12/07 02:42:33;;;;;;;19.92;12.80;;;2.20;95.20;;;;;;5059875;28;20047;-65
2021/12/07 02:44:59;;;;;;;18.17;11.85;;;2.20;95.20;;;;;;5057557;28;20021;-65
2021/12/07 02:47:25;;;;;;;17.33;11.63;;;2.30;95.10;;;;;;5063081;28;20044;-65
2021/12/07 02:49:51;;;;;;;20.35;12.98;;;2.20;95.20;;;;;;5056097;28;20067;-65
2021/12/07 02:52:17;;;;;;;18.63;12.63;;;2.20;95.20;;;;;;5061071;28;20127;-65
2021/12/07 02:54:45;;;;;;;21.75;12.60;;;2.20;95.20;;;;;;5061713;28;20021;-65
2021/12/07 02:57:17;;;;;;;16.75;12.32;;;2.10;95.20;;;;;;5061283;28;20226;-65
2021/12/07 02:59:47;;;;;;;19.83;12.40;;;1.90;95.50;;;;;;5059464;28;20043;-65
2021/12/07 03:02:15;;;;;;;18.00;11.50;;;1.90;95.90;;;;;;5061159;28;20083;-65
2021/12/07 03:04:53;;;;;;;17.90;11.50;;;2.10;95.70;;;;;;5058579;28;20032;-65
2021/12/07 03:07:37;;;;;;;18.50;12.15;;;2.20;95.50;;;;;;5061160;28;20024;-65
2021/12/07 03:25:52;;;;;;;17.98;12.25;;;2.20;95.30;;;;;;5060601;28;20040;-65
2021/12/07 03:26:31;;;;;;;17.65;11.88;;;2.50;95.00;;;;;;5056018;28;20145;-65
2021/12/07 03:28:59;;;;;;;19.05;12.90;;;2.50;94.90;;;;;;5056801;28;20090;-65
2021/12/07 03:31:26;;;;;;;19.35;12.73;;;2.40;94.80;;;;;;5055930;28;20036;-66
2021/12/07 03:33:53;;;;;;;19.67;12.85;;;2.40;94.90;;;;;;5059745;28;20175;-65
2021/12/07 03:36:21;;;;;;;20.13;12.70;;;2.40;95.00;;;;;;5059144;28;20029;-65
2021/12/07 03:38:47;;;;;;;16.67;11.98;;;2.30;95.10;;;;;;5057606;28;20125;-65
2021/12/07 03:41:13;;;;;;;19.38;12.98;;;2.10;95.50;;;;;;5062397;28;20595;-65
2021/12/07 03:43:39;;;;;;;18.58;12.40;;;2.10;95.90;;;;;;5056913;28;20052;-65
2021/12/07 03:46:06;;;;;;;17.13;12.43;;;2.20;95.70;;;;;;5058594;28;20029;-64
2021/12/07 03:48:32;;;;;;;20.40;13.15;;;2.30;95.60;;;;;;5056115;28;20139;-65
2021/12/07 03:51:01;;;;;;;19.30;13.02;;;2.40;95.40;;;;;;5053865;28;20036;-65
2021/12/07 03:53:30;;;;;;;20.58;12.82;;;2.50;95.30;;;;;;5055370;28;20029;-66
2021/12/07 03:55:57;;;;;;;20.10;12.73;;;2.50;95.10;;;;;;5057693;28;20082;-65
2021/12/07 03:58:23;;;;;;;21.48;13.30;;;2.50;95.00;;;;;;5059513;28;20040;-65
2021/12/07 04:00:49;;;;;;;18.23;12.98;;;2.30;95.20;;;;;;5060936;28;20038;-65
2021/12/07 04:03:17;;;;;;;19.05;12.90;;;2.20;95.60;;;;;;5054171;28;20021;-66
2021/12/07 04:05:53;;;;;;;20.13;14.20;;;2.30;95.70;;;;;;5056284;28;20040;-65
2021/12/07 04:08:23;;;;;;;21.17;13.82;;;2.40;95.50;;;;;;5057619;28;20043;-65
2021/12/07 04:10:50;;;;;;;20.73;13.32;;;2.50;95.40;;;;;;5059778;28;20737;-66
2021/12/07 04:13:16;;;;;;;20.92;13.18;;;2.50;95.30;;;;;;5059526;28;20099;-65
2021/12/07 04:15:42;;;;;;;20.27;12.77;;;2.60;95.20;;;;;;5059745;28;20065;-65
2021/12/07 04:18:08;;;;;;;18.38;12.95;;;2.70;95.10;;;;;;5056705;28;20072;-65
2021/12/07 04:20:34;;;;;;;17.90;12.32;;;2.70;94.90;;;;;;5057957;28;20068;-66
2021/12/07 04:23:00;;;;;;;19.42;14.05;;;2.80;94.90;;;;;;5059488;28;20079;-65
2021/12/07 04:25:26;;;;;;;21.70;14.25;;;2.80;94.70;;;;;;5058358;28;20478;-65
2021/12/07 04:27:53;;;;;;;19.35;13.43;;;2.80;94.60;;;;;;5060751;28;20057;-65
2021/12/07 04:30:30;;;;;;;20.35;13.10;;;2.80;94.60;;;;;;5055033;28;20082;-65
2021/12/07 04:32:58;;;;;;;18.88;13.02;;;2.80;94.50;;;;;;5059733;28;20055;-66
2021/12/07 04:35:24;;;;;;;20.05;13.73;;;2.80;94.60;;;;;;5058399;28;20111;-67
2021/12/07 04:37:50;;;;;;;20.60;13.52;;;2.80;94.70;;;;;;5058647;28;20708;-65
2021/12/07 04:40:21;;;;;;;18.85;13.90;;;2.80;94.60;;;;;;5056522;28;20111;-66
2021/12/07 04:42:47;;;;;;;19.55;13.73;;;2.70;94.70;;;;;;5060618;28;20059;-65
2021/12/07 04:45:34;;;;;;;19.05;13.32;;;2.60;95.10;;;;;;5057456;28;20032;-65
2021/12/07 04:58:34;;;;;;;24.00;15.00;;;2.80;94.90;;;;;;5043984;28;20075;-66
2021/12/07 05:01:00;;;;;;;21.38;14.65;;;2.80;94.80;;;;;;5056533;28;20032;-66
2021/12/07 05:03:28;;;;;;;21.25;13.55;;;2.80;94.80;;;;;;5057675;28;20406;-67
2021/12/07 05:05:55;;;;;;;23.58;14.80;;;2.70;94.80;;;;;;5056525;28;20131;-66
2021/12/07 05:13:35;;;;;;;23.08;14.57;;;2.70;94.70;;;;;;5061108;28;20090;-66
2021/12/07 05:24:10;;;;;;;22.17;15.10;;;2.70;95.10;;;;;;5058469;28;20040;-66
2021/12/07 05:40:25;;;;;;;31.70;18.83;;;2.60;94.90;;;;;;5056419;28;20055;-63
2021/12/07 05:42:52;;;;;;;26.15;16.05;;;2.70;95.00;;;;;;5060369;28;20035;-65
2021/12/07 05:45:21;;;;;;;33.30;19.73;;;2.80;94.90;;;;;;5058971;28;20025;-65
2021/12/07 05:47:48;;;;;;;32.28;19.13;;;2.80;94.80;;;;;;5064504;28;20074;-65
2021/12/07 05:50:17;;;;;;;42.35;26.52;;;2.80;94.60;;;;;;5056854;28;20024;-66
2021/12/07 05:52:43;;;;;;;49.75;30.60;;;2.90;94.40;;;;;;5047341;28;20105;-65
2021/12/07 05:55:09;;;;;;;59.08;34.75;;;2.90;94.50;;;;;;5059331;28;20017;-66
2021/12/07 05:57:35;;;;;;;42.83;27.80;;;2.80;94.40;;;;;;5058133;28;20025;-65
2021/12/07 06:00:02;;;;;;;35.15;23.33;;;2.80;94.50;;;;;;5060510;28;20025;-65
2021/12/07 06:02:28;;;;;;;38.97;25.52;;;2.80;94.50;;;;;;5058867;28;20033;-65
2021/12/07 06:04:54;;;;;;;39.10;24.40;;;2.80;94.70;;;;;;5062340;28;20074;-65
2021/12/07 06:07:19;;;;;;;36.60;23.40;;;2.90;94.60;;;;;;5063311;28;20103;-66
2021/12/07 06:09:45;;;;;;;37.15;23.63;;;2.90;94.50;;;;;;5062693;28;20142;-65
2021/12/07 06:12:11;;;;;;;33.40;20.38;;;2.90;94.40;;;;;;5061764;28;20043;-66
2021/12/07 06:14:42;;;;;;;23.80;16.23;;;2.80;94.80;;;;;;5062999;28;20035;-65
2021/12/07 06:17:08;;;;;;;24.95;14.93;;;2.70;94.60;;;;;;5063916;28;20028;-65
2021/12/07 06:19:34;;;;;;;30.27;19.17;;;2.70;94.60;;;;;;5059188;28;20028;-65
2021/12/07 06:22:00;;;;;;;30.90;19.08;;;2.60;94.80;;;;;;5064360;28;20489;-65
2021/12/07 06:24:25;;;;;;;25.52;15.55;;;2.60;94.80;;;;;;5061789;28;20044;-65
2021/12/07 06:26:51;;;;;;;33.70;20.75;;;2.60;94.90;;;;;;5064266;28;20198;-65
2021/12/07 06:29:17;;;;;;;33.15;20.20;;;2.70;94.90;;;;;;5065771;28;20475;-64
2021/12/07 06:31:43;;;;;;;39.78;22.10;;;2.70;94.80;;;;;;5061757;28;20033;-65
2021/12/07 06:34:12;;;;;;;31.73;18.80;;;2.80;94.60;;;;;;5060316;28;20032;-65
2021/12/07 06:36:39;;;;;;;20.73;13.85;;;2.80;94.40;;;;;;5060778;28;20037;-65
2021/12/07 06:39:06;;;;;;;20.35;13.77;;;2.50;94.70;;;;;;5058365;28;20036;-64
2021/12/07 06:41:32;;;;;;;21.60;14.50;;;2.20;95.00;;;;;;5061718;28;20052;-64
2021/12/07 06:43:58;;;;;;;22.77;13.93;;;2.10;95.40;;;;;;5063205;28;20032;-65
2021/12/07 06:46:24;;;;;;;22.95;14.13;;;1.90;95.80;;;;;;5062049;28;20024;-65
2021/12/07 06:48:49;;;;;;;25.98;15.80;;;1.80;96.10;;;;;;5057483;28;20536;-63
2021/12/07 06:51:15;;;;;;;32.65;19.80;;;1.80;96.30;;;;;;5057408;28;20033;-65
2021/12/07 06:53:41;;;;;;;29.95;19.65;;;2.00;96.30;;;;;;5056632;28;20032;-65
2021/12/07 06:56:08;;;;;;;29.42;19.20;;;2.20;96.10;;;;;;5063556;28;20035;-65
2021/12/07 06:58:34;;;;;;;30.33;20.60;;;2.30;95.70;;;;;;5056432;28;20048;-65
2021/12/07 07:01:00;;;;;;;32.35;21.55;;;2.40;95.50;;;;;;5061709;28;20037;-65
2021/12/07 07:03:26;;;;;;;33.85;22.40;;;2.50;95.40;;;;;;5060694;28;20028;-66
2021/12/07 07:05:52;;;;;;;31.42;20.42;;;2.60;95.20;;;;;;5058030;28;20032;-64
2021/12/07 07:08:19;;;;;;;30.98;20.08;;;2.70;95.00;;;;;;5056763;28;20060;-65
2021/12/07 07:10:45;;;;;;;30.75;19.63;;;2.80;94.70;;;;;;5060417;28;20055;-65
2021/12/07 07:13:12;;;;;;;29.85;19.35;;;2.80;94.60;;;;;;5058320;28;20434;-63
2021/12/07 07:15:38;;;;;;;28.10;19.70;;;2.80;94.60;;;;;;5058946;28;20357;-65
2021/12/07 07:18:04;;;;;;;31.75;19.52;;;2.80;94.70;;;;;;5062002;28;20013;-63
2021/12/07 07:20:30;;;;;;;29.05;18.85;;;2.90;94.80;;;;;;5058780;28;20113;-64
2021/12/07 07:22:55;;;;;;;30.27;17.45;;;2.90;94.60;;;;;;5059873;28;20120;-64
2021/12/07 07:25:22;;;;;;;26.02;17.73;;;2.90;94.70;;;;;;5060326;28;20029;-62
2021/12/07 07:27:47;;;;;;;23.88;15.15;;;2.80;94.80;;;;;;5063570;28;20024;-64
2021/12/07 07:30:15;;;;;;;23.75;16.50;;;2.80;94.60;;;;;;5057084;28;20140;-64
2021/12/07 07:32:41;;;;;;;29.02;18.67;;;2.70;95.10;;;;;;5057212;28;20547;-64
2021/12/07 07:35:10;;;;;;;28.10;17.48;;;2.70;95.10;;;;;;5059334;28;20032;-63
2021/12/07 07:37:36;;;;;;;24.17;15.95;;;2.80;94.90;;;;;;5061263;28;20059;-64
2021/12/07 07:40:06;;;;;;;27.90;16.90;;;2.80;94.70;;;;;;5057883;28;20053;-63
2021/12/07 07:42:32;;;;;;;23.00;16.00;;;2.80;94.60;;;;;;5063095;28;20089;-65
2021/12/07 07:44:58;;;;;;;61.80;34.45;;;2.80;94.70;;;;;;5056769;28;20089;-65
2021/12/07 07:47:23;;;;;;;54.25;30.67;;;2.80;94.60;;;;;;5059217;28;20271;-64
2021/12/07 07:49:49;;;;;;;57.10;34.10;;;2.70;94.80;;;;;;5055870;28;20025;-64
2021/12/07 07:52:15;;;;;;;30.45;18.00;;;2.60;95.30;;;;;;5058063;28;20029;-64
2021/12/07 07:54:40;;;;;;;24.73;15.43;;;2.70;95.30;;;;;;5060039;28;20033;-65
2021/12/07 07:57:06;;;;;;;61.05;35.38;;;2.70;95.00;;;;;;5059635;28;20040;-65
2021/12/07 07:59:32;;;;;;;75.38;41.33;;;2.70;94.90;;;;;;5056691;28;20546;-65
2021/12/07 08:01:58;;;;;;;20.92;15.43;;;2.70;94.90;;;;;;5057631;28;20028;-65
2021/12/07 08:04:23;;;;;;;23.77;16.25;;;2.50;94.90;;;;;;5060638;28;20013;-64
2021/12/07 08:06:49;;;;;;;57.00;34.55;;;2.30;95.50;;;;;;5060250;28;20036;-64
2021/12/07 08:09:15;;;;;;;57.40;36.67;;;2.30;95.80;;;;;;5060843;28;20498;-64
2021/12/07 08:11:41;;;;;;;32.95;18.75;;;2.30;95.80;;;;;;5058407;28;20172;-64
2021/12/07 08:14:07;;;;;;;35.38;25.05;;;2.20;95.60;;;;;;5058971;28;20025;-64
2021/12/07 08:16:33;;;;;;;47.08;35.08;;;2.10;96.00;;;;;;5060029;28;20032;-64
2021/12/07 08:18:59;;;;;;;46.45;34.08;;;2.10;96.40;;;;;;5056785;28;20029;-64
2021/12/07 08:21:24;;;;;;;28.42;20.70;;;2.00;96.10;;;;;;5059524;28;20027;-64
2021/12/07 08:23:50;;;;;;;31.00;20.77;;;2.10;96.50;;;;;;5059574;28;20029;-65
2021/12/07 08:26:21;;;;;;;33.53;21.73;;;2.20;96.20;;;;;;5059845;28;20115;-65
2021/12/07 08:28:46;;;;;;;48.75;31.83;;;2.30;96.00;;;;;;5058819;28;20557;-65
2021/12/07 08:31:12;;;;;;;38.70;25.80;;;2.40;95.90;;;;;;5056818;28;20138;-65
2021/12/07 08:33:38;;;;;;;26.65;19.60;;;2.30;95.90;;;;;;5062679;28;20087;-65
2021/12/07 08:36:04;;;;;;;36.22;24.63;;;2.50;96.00;;;;;;5059591;28;21046;-65
2021/12/07 08:38:31;;;;;;;35.33;24.92;;;2.60;95.50;;;;;;5058222;28;20050;-65
2021/12/07 08:40:58;;;;;;;29.52;20.40;;;2.60;95.50;;;;;;5055220;28;20053;-65
2021/12/07 08:43:28;;;;;;;31.25;20.38;;;2.70;95.40;;;;;;5060113;28;20013;-65
2021/12/07 08:45:56;;;;;;;32.70;21.23;;;2.90;95.30;;;;;;5062163;28;20026;-63
2021/12/07 08:48:22;;;;;;;24.67;17.33;;;2.90;95.10;;;;;;5063364;28;20036;-64
2021/12/07 08:50:48;;;;;;;23.65;15.77;;;3.10;94.90;;;;;;5057761;28;20033;-64
2021/12/07 08:53:16;;;;;;;29.83;21.35;;;3.20;94.70;;;;;;5057493;28;20042;-65
2021/12/07 09:01:18;;;;;;;20.20;14.23;;;3.30;94.60;;;;;;5070152;28;20036;-64
2021/12/07 09:03:45;;;;;;;21.63;15.57;;;3.40;94.30;;;;;;5065019;28;20529;-64
2021/12/07 09:06:11;;;;;;;24.38;15.70;;;3.50;94.10;;;;;;5069012;28;20032;-64
2021/12/07 09:08:37;;;;;;;23.25;16.45;;;3.50;93.90;;;;;;5064416;28;20033;-64
2021/12/07 09:11:04;;;;;;;22.30;16.13;;;3.50;93.80;;;;;;5061237;28;20448;-65
2021/12/07 09:13:30;;;;;;;21.52;16.00;;;3.60;93.90;;;;;;5067317;28;20137;-64
2021/12/07 09:15:56;;;;;;;22.90;15.77;;;3.60;93.80;;;;;;5063962;28;20025;-64
2021/12/07 09:18:23;;;;;;;25.88;18.67;;;3.70;93.90;;;;;;5065796;28;20811;-65
2021/12/07 09:20:50;;;;;;;31.52;24.30;;;3.70;93.50;;;;;;5064039;28;20482;-65
2021/12/07 09:23:16;;;;;;;23.55;15.20;;;3.50;94.00;;;;;;5066066;28;20615;-64
2021/12/07 09:25:41;;;;;;;27.27;19.38;;;3.50;94.30;;;;;;5060162;28;20041;-64
2021/12/07 09:28:08;;;;;;;29.67;21.20;;;3.40;94.20;;;;;;5064486;28;20033;-64
2021/12/07 09:30:34;;;;;;;28.13;20.55;;;3.30;94.50;;;;;;5065035;28;20027;-65
2021/12/07 09:32:59;;;;;;;31.70;21.67;;;3.20;94.90;;;;;;5063492;28;20021;-65
2021/12/07 09:35:25;;;;;;;33.67;23.95;;;3.30;95.10;;;;;;5062269;28;20525;-65
2021/12/07 09:37:53;;;;;;;21.65;15.55;;;3.20;95.30;;;;;;5063385;28;20616;-65
2021/12/07 09:40:20;;;;;;;24.33;19.33;;;3.30;95.60;;;;;;5064919;28;20063;-65
2021/12/07 09:42:47;;;;;;;29.02;18.55;;;3.30;95.50;;;;;;5067365;28;20131;-64
2021/12/07 09:45:16;;;;;;;28.08;17.92;;;3.30;95.80;;;;;;5065528;28;20115;-65
2021/12/07 09:47:42;;;;;;;31.48;16.77;;;3.40;95.70;;;;;;5063975;28;20171;-64
2021/12/07 09:50:11;;;;;;;24.52;14.15;;;3.50;95.90;;;;;;5063790;28;20139;-64
2021/12/07 09:52:38;;;;;;;21.67;15.45;;;3.60;95.30;;;;;;5065298;28;20558;-64
2021/12/07 09:55:04;;;;;;;20.05;13.85;;;3.50;95.10;;;;;;5065108;28;20028;-64
2021/12/07 09:57:30;;;;;;;21.80;14.45;;;3.40;95.60;;;;;;5063120;28;20029;-64
2021/12/07 09:59:56;;;;;;;24.38;16.40;;;3.50;95.90;;;;;;5067244;28;20021;-64
2021/12/07 10:02:22;;;;;;;34.63;21.38;;;3.60;95.50;;;;;;5064956;28;20599;-64
2021/12/07 10:04:48;;;;;;;29.35;18.30;;;3.70;95.10;;;;;;5063166;28;20031;-64
2021/12/07 10:07:14;;;;;;;34.08;21.65;;;3.90;95.30;;;;;;5063929;28;20493;-64
2021/12/07 10:09:40;;;;;;;27.02;19.25;;;4.00;94.80;;;;;;5042740;28;20044;-64
2021/12/07 10:12:07;;;;;;;26.33;17.85;;;4.00;94.60;;;;;;5059780;28;20036;-64
2021/12/07 10:14:38;;;;;;;28.40;18.42;;;4.10;94.70;;;;;;5059354;28;20046;-65
2021/12/07 10:17:04;;;;;;;21.73;14.82;;;4.20;94.40;;;;;;5060388;28;20044;-65
2021/12/07 10:19:34;;;;;;;19.17;13.55;;;4.10;94.30;;;;;;5060016;28;20028;-64
2021/12/07 10:22:06;;;;;;;23.52;14.77;;;3.90;94.50;;;;;;5058108;28;20039;-64
2021/12/07 10:24:39;;;;;;;20.90;14.50;;;3.70;95.10;;;;;;5059458;28;20028;-64
2021/12/07 10:27:06;;;;;;;21.88;14.77;;;3.60;95.40;;;;;;5061046;28;20051;-64
2021/12/07 10:29:33;;;;;;;22.38;15.02;;;3.50;95.50;;;;;;5056383;28;20514;-64
2021/12/07 10:32:01;;;;;;;23.58;15.10;;;3.40;95.90;;;;;;5054253;28;20606;-65
2021/12/07 10:34:32;;;;;;;20.00;14.60;;;3.50;95.90;;;;;;5064154;28;20390;-64
2021/12/07 10:37:10;;;;;;;21.58;15.20;;;3.50;96.10;;;;;;5059843;28;20493;-64
2021/12/07 10:39:39;;;;;;;24.85;15.40;;;3.60;95.90;;;;;;5057313;28;20055;-64
2021/12/07 10:42:08;;;;;;;22.25;15.63;;;3.70;95.70;;;;;;5057493;28;20421;-67
2021/12/07 10:44:39;;;;;;;23.70;16.30;;;3.80;95.70;;;;;;5057113;28;20024;-64
2021/12/07 10:47:07;;;;;;;24.77;18.42;;;3.90;95.50;;;;;;5060708;28;20032;-64
2021/12/07 10:49:49;;;;;;;29.58;24.33;;;3.90;95.10;;;;;;5059474;28;20068;-65
2021/12/07 10:52:47;;;;;;;29.77;21.60;;;3.90;95.20;;;;;;5061062;28;20682;-65
2021/12/07 10:55:22;;;;;;;48.42;32.85;;;4.00;95.30;;;;;;4995812;28;20036;-65
2021/12/07 10:57:58;;;;;;;31.55;21.73;;;4.10;95.30;;;;;;5059312;28;20534;-65
2021/12/07 11:00:30;;;;;;;28.00;19.27;;;4.10;95.00;;;;;;5055193;28;20021;-64
2021/12/07 11:03:06;;;;;;;21.67;15.57;;;4.20;95.10;;;;;;5063094;28;20459;-63
2021/12/07 11:05:43;;;;;;;32.38;22.50;;;4.20;94.90;;;;;;5063262;28;20104;-64
2021/12/07 11:08:09;;;;;;;29.08;20.05;;;4.20;95.10;;;;;;5060172;28;20048;-65
2021/12/07 11:10:42;;;;;;;31.85;20.67;;;4.30;95.10;;;;;;5059147;28;20690;-65
2021/12/07 11:13:56;;;;;;;25.42;16.85;;;4.50;96.00;;;;;;5058703;28;20036;-65
2021/12/07 11:16:13;;;;;;;28.65;19.20;;;4.70;94.80;;;;;;5047855;28;20044;-65
2021/12/07 11:18:42;;;;;;;25.55;15.27;;;4.80;94.50;;;;;;5056576;28;20142;-65
2021/12/07 11:21:19;;;;;;;19.52;13.95;;;4.70;94.70;;;;;;5061498;28;20563;-65
2021/12/07 11:23:55;;;;;;;20.92;14.20;;;4.60;94.60;;;;;;5057229;28;20035;-65
2021/12/07 11:31:46;;;;;;;19.95;13.98;;;4.50;95.10;;;;;;5057176;28;20144;-64
2021/12/07 11:34:13;;;;;;;21.75;13.93;;;4.60;95.00;;;;;;5057195;28;20051;-67
2021/12/07 11:36:47;;;;;;;20.70;13.20;;;4.70;94.40;;;;;;5058313;28;20111;-66
2021/12/07 11:39:48;;;;;;;21.48;15.05;;;4.90;94.10;;;;;;5058352;28;20035;-66
2021/12/07 11:42:18;;;;;;;22.25;15.85;;;5.00;94.10;;;;;;5034085;28;20060;-66
2021/12/07 11:45:03;;;;;;;20.98;14.02;;;5.00;93.90;;;;;;5059101;28;20055;-66
2021/12/07 11:47:41;;;;;;;34.05;23.58;;;5.10;93.80;;;;;;5060235;28;20056;-66
2021/12/07 11:50:18;;;;;;;43.25;29.50;;;5.20;93.80;;;;;;5053479;28;20559;-64
2021/12/07 11:52:45;;;;;;;59.38;41.47;;;5.30;93.50;;;;;;5059514;28;20047;-64
2021/12/07 11:55:11;;;;;;;47.63;28.33;;;5.40;93.30;;;;;;5059556;28;20078;-64
2021/12/07 11:57:39;;;;;;;46.38;31.60;;;5.50;93.10;;;;;;5060070;28;20078;-65
2021/12/07 12:00:08;;;;;;;36.15;26.20;;;5.40;93.20;;;;;;5061260;28;20028;-65
2021/12/07 12:02:34;;;;;;;24.85;17.75;;;5.40;93.10;;;;;;5058197;28;20761;-65
2021/12/07 12:05:00;;;;;;;21.80;15.48;;;5.40;93.00;;;;;;5057709;28;20032;-65
2021/12/07 12:07:26;;;;;;;28.20;15.82;;;5.50;92.80;;;;;;5056735;28;20028;-64
2021/12/07 12:09:53;;;;;;;25.90;15.13;;;5.40;92.70;;;;;;5059020;28;20029;-65
2021/12/07 12:12:40;;;;;;;23.25;15.50;;;5.30;92.80;;;;;;5057516;28;20055;-65
2021/12/07 12:15:38;;;;;;;24.52;16.63;;;5.20;92.90;;;;;;5061092;28;20035;-65
2021/12/07 12:18:38;;;;;;;25.75;16.38;;;5.30;93.20;;;;;;5060567;28;20032;-65
2021/12/07 12:21:25;;;;;;;23.90;16.17;;;5.40;93.20;;;;;;5056581;28;20039;-65
2021/12/07 12:24:10;;;;;;;22.92;15.95;;;5.50;93.10;;;;;;5058696;28;20493;-66
2021/12/07 12:26:36;;;;;;;26.58;18.60;;;5.60;93.00;;;;;;5057793;28;20036;-65
2021/12/07 12:29:24;;;;;;;26.25;17.98;;;5.70;92.80;;;;;;5055792;28;20032;-65
2021/12/07 12:31:57;;;;;;;24.20;15.82;;;5.80;92.70;;;;;;5054638;28;20055;-65
2021/12/07 12:34:28;;;;;;;25.10;16.13;;;5.90;92.40;;;;;;5053994;28;20063;-65
2021/12/07 12:37:01;;;;;;;23.35;15.77;;;5.90;91.90;;;;;;5058373;28;20029;-66
2021/12/07 12:39:50;;;;;;;22.80;15.85;;;5.90;92.00;;;;;;5056384;28;20032;-65
2021/12/07 12:42:25;;;;;;;28.75;17.80;;;5.90;91.80;;;;;;5055295;28;20040;-65
2021/12/07 12:45:01;;;;;;;19.63;12.63;;;5.90;92.20;;;;;;5056231;28;20033;-65
2021/12/07 12:47:28;;;;;;;20.55;13.27;;;5.90;91.40;;;;;;5057786;28;20095;-65
2021/12/07 12:49:55;;;;;;;19.73;13.85;;;5.70;91.10;;;;;;5055601;28;20577;-65
2021/12/07 12:52:50;;;;;;;21.25;13.15;;;5.60;91.40;;;;;;5054195;28;20546;-65
2021/12/07 12:55:36;;;;;;;20.13;14.10;;;5.40;91.90;;;;;;5051169;28;20117;-65
2021/12/07 12:58:07;;;;;;;19.70;14.70;;;5.40;92.10;;;;;;5054263;28;20040;-66
2021/12/07 13:01:00;;;;;;;20.35;14.02;;;5.40;92.40;;;;;;5054676;28;20029;-66
2021/12/07 13:03:50;;;;;;;24.10;16.00;;;5.60;92.00;;;;;;5054542;28;20041;-66
2021/12/07 13:06:19;;;;;;;22.83;15.93;;;5.80;91.60;;;;;;5056073;28;20068;-65
2021/12/07 13:09:11;;;;;;;24.15;15.75;;;5.80;91.20;;;;;;5051649;28;20024;-65
2021/12/07 13:11:38;;;;;;;28.85;18.27;;;5.80;91.40;;;;;;5053510;28;20035;-62
2021/12/07 13:14:26;;;;;;;62.35;40.40;;;5.80;91.30;;;;;;5055575;28;22698;-63
2021/12/07 13:16:53;;;;;;;66.90;44.90;;;5.80;91.60;;;;;;5017214;28;20083;-63
2021/12/07 13:19:19;;;;;;;57.40;39.33;;;5.80;91.20;;;;;;5051311;28;20033;-64
2021/12/07 13:21:47;;;;;;;54.92;38.92;;;5.90;91.00;;;;;;5054272;28;20028;-63
2021/12/07 13:24:31;;;;;;;50.92;36.63;;;6.10;90.70;;;;;;5056907;28;20033;-64
2021/12/07 13:26:57;;;;;;;48.75;34.03;;;6.40;90.40;;;;;;5060595;28;21224;-64
2021/12/07 13:29:25;;;;;;;38.50;26.77;;;6.70;89.60;;;;;;5055323;28;20117;-64
2021/12/07 13:31:55;;;;;;;82.65;53.40;;;6.90;88.30;;;;;;5054292;28;20037;-64
2021/12/07 13:34:30;;;;;;;60.35;39.15;;;7.10;88.00;;;;;;5054957;28;20055;-64
2021/12/07 13:36:58;;;;;;;47.75;31.02;;;7.30;86.50;;;;;;5053008;28;20025;-65
2021/12/07 13:39:23;;;;;;;31.55;20.70;;;7.70;85.60;;;;;;5052932;28;20517;-65
2021/12/07 13:42:18;;;;;;;24.67;18.48;;;8.40;84.10;;;;;;5056660;28;20039;-65
2021/12/07 13:45:09;;;;;;;18.58;12.65;;;9.10;81.60;;;;;;5057897;28;20029;-65
2021/12/07 13:47:43;;;;;;;19.42;14.23;;;10.00;77.20;;;;;;5053119;28;20122;-66
2021/12/07 13:50:17;;;;;;;22.42;15.00;;;11.00;74.10;;;;;;5060789;28;20033;-66
2021/12/07 13:52:49;;;;;;;35.08;24.48;;;11.10;70.00;;;;;;5057536;28;20044;-65
2021/12/07 13:55:44;;;;;;;19.85;14.80;;;10.60;71.40;;;;;;5045438;28;20708;-66
2021/12/07 13:58:11;;;;;;;19.85;14.27;;;10.30;72.50;;;;;;5055491;28;20107;-65
2021/12/07 14:00:37;;;;;;;27.63;19.95;;;9.90;73.80;;;;;;5059263;28;20021;-65
2021/12/07 14:03:15;;;;;;;24.48;16.70;;;9.60;75.00;;;;;;5060588;28;20033;-65
2021/12/07 14:05:43;;;;;;;26.88;17.98;;;9.30;75.30;;;;;;5060192;28;20111;-65
2021/12/07 14:08:14;;;;;;;23.50;16.40;;;9.10;76.40;;;;;;5058679;28;20031;-66
2021/12/07 14:10:42;;;;;;;23.10;17.60;;;8.80;77.10;;;;;;5058545;28;20033;-65
2021/12/07 14:13:08;;;;;;;22.10;16.30;;;8.50;77.90;;;;;;5059634;28;20091;-65
2021/12/07 14:15:40;;;;;;;25.77;18.00;;;8.20;78.90;;;;;;5059519;28;20498;-66
2021/12/07 14:18:22;;;;;;;25.90;17.58;;;7.90;80.10;;;;;;5057896;28;20081;-65
2021/12/07 14:20:54;;;;;;;;;;;7.70;80.60;;;;;;5057387;28;20117;-65
2021/12/07 14:23:25;;;;;;;29.48;18.73;;;7.40;81.50;;;;;;5055361;28;19912;-64
2021/12/07 14:26:04;;;;;;;25.52;17.38;;;7.00;82.20;;;;;;5052585;28;20036;-65
2021/12/07 14:28:42;;;;;;;29.77;18.20;;;6.70;84.00;;;;;;5053135;28;20033;-64
2021/12/07 14:31:13;;;;;;;29.10;21.73;;;6.60;85.00;;;;;;5052444;28;20064;-65
2021/12/07 14:33:42;;;;;;;29.30;20.55;;;6.60;85.10;;;;;;5052807;28;20075;-64